Time;durP1;ratioP1;P1;durP2;ratioP2;P2;SDS_P1;SDS_P2;PMS_P1;PMS_P2;Temp;Humidity;BMP_temperature;BMP_pressure;BME280_temperature;BME280_humidity;BME280_pressure;Samples;Min_cycle;Max_cycle;Signal;HPM_P1;HPM_P2
2023/06/12 00:00:54;;;;;;;0.63;0.40;;;19.60;73.80;;;;;;5007198;28;20410;-81
2023/06/12 00:03:26;;;;;;;1.52;0.50;;;19.60;74.30;;;;;;4997289;28;20275;-81
2023/06/12 00:05:58;;;;;;;0.05;0.03;;;19.60;74.20;;;;;;5006011;28;20038;-80
2023/06/12 00:08:26;;;;;;;0.00;0.00;;;19.60;75.30;;;;;;5007917;28;20056;-80
2023/06/12 00:10:52;;;;;;;0.03;0.03;;;19.50;76.20;;;;;;5005279;28;20042;-79
2023/06/12 00:13:18;;;;;;;1.10;0.30;;;19.50;76.60;;;;;;4991867;28;20037;-81
2023/06/12 00:15:43;;;;;;;0.45;0.20;;;19.40;77.40;;;;;;4993499;28;20493;-80
2023/06/12 00:18:11;;;;;;;0.10;0.00;;;19.40;78.60;;;;;;5009646;28;20034;-81
2023/06/12 00:20:36;;;;;;;0.00;0.00;;;19.40;78.90;;;;;;4996582;28;20125;-80
2023/06/12 00:23:02;;;;;;;0.40;0.30;;;19.30;80.80;;;;;;5007625;28;20129;-81
2023/06/12 00:25:28;;;;;;;0.25;0.17;;;19.30;82.00;;;;;;5007928;28;20048;-80
2023/06/12 00:27:54;;;;;;;0.20;0.20;;;19.20;83.70;;;;;;5007437;28;20048;-80
2023/06/12 00:30:20;;;;;;;0.38;0.22;;;19.20;85.20;;;;;;4993640;28;20378;-80
2023/06/12 00:32:46;;;;;;;0.35;0.17;;;19.10;85.10;;;;;;5008606;28;20577;-79
2023/06/12 00:35:12;;;;;;;0.00;0.00;;;19.00;88.60;;;;;;5006585;28;20044;-78
2023/06/12 00:37:42;;;;;;;0.35;0.35;;;19.00;90.30;;;;;;5003159;28;20038;-80
2023/06/12 00:40:12;;;;;;;0.28;0.20;;;19.00;91.10;;;;;;5006592;28;20077;-80
2023/06/12 00:42:47;;;;;;;0.40;0.28;;;18.90;92.00;;;;;;4992459;28;20037;-80
2023/06/12 00:45:14;;;;;;;0.38;0.20;;;18.90;93.00;;;;;;4993028;28;20037;-82
2023/06/12 00:47:40;;;;;;;0.25;0.10;;;18.80;93.00;;;;;;5008110;28;20041;-80
2023/06/12 00:50:11;;;;;;;0.28;0.10;;;18.80;93.50;;;;;;5000773;28;20038;-81
2023/06/12 00:52:40;;;;;;;0.05;0.05;;;18.70;95.20;;;;;;5009007;28;20050;-81
2023/06/12 00:55:06;;;;;;;0.00;0.00;;;18.70;96.10;;;;;;5008794;28;20037;-76
2023/06/12 00:57:32;;;;;;;0.10;0.10;;;18.60;96.60;;;;;;5007705;28;20038;-75
2023/06/12 01:00:00;;;;;;;1.60;0.52;;;18.60;97.40;;;;;;5009538;28;20045;-78
2023/06/12 01:02:27;;;;;;;0.13;0.03;;;18.50;97.60;;;;;;5004037;28;20117;-74
2023/06/12 01:04:52;;;;;;;0.30;0.22;;;18.60;98.20;;;;;;5008620;28;20050;-73
2023/06/12 01:07:38;;;;;;;0.82;0.10;;;18.50;98.80;;;;;;5020808;28;20055;-73
2023/06/12 01:10:30;;;;;;;0.70;0.32;;;18.50;99.40;;;;;;5022948;28;20058;-74
2023/06/12 01:12:59;;;;;;;0.60;0.17;;;18.40;99.90;;;;;;5006384;28;20422;-74
2023/06/12 01:15:24;;;;;;;0.00;0.00;;;18.40;99.90;;;;;;5006502;28;20041;-74
2023/06/12 01:17:51;;;;;;;0.28;0.17;;;18.30;99.90;;;;;;5006098;28;20038;-73
2023/06/12 01:20:17;;;;;;;0.10;0.10;;;18.30;99.90;;;;;;5005320;28;20037;-74
2023/06/12 01:23:00;;;;;;;0.20;0.20;;;18.30;99.90;;;;;;5009344;28;20045;-74
2023/06/12 01:25:48;;;;;;;0.75;0.10;;;18.20;99.90;;;;;;5002076;28;20077;-74
2023/06/12 01:28:28;;;;;;;0.30;0.20;;;18.20;99.90;;;;;;5003973;28;20042;-74
2023/06/12 01:31:06;;;;;;;0.03;0.00;;;18.10;99.90;;;;;;5004639;28;20109;-74
2023/06/12 01:33:37;;;;;;;0.75;0.25;;;18.10;99.90;;;;;;5006234;28;20046;-73
2023/06/12 01:36:08;;;;;;;0.00;0.00;;;18.10;99.90;;;;;;5007556;28;20065;-74
2023/06/12 01:38:35;;;;;;;0.30;0.30;;;18.00;99.90;;;;;;5003541;28;20042;-73
2023/06/12 01:41:06;;;;;;;1.55;0.10;;;18.00;99.90;;;;;;5003107;28;20494;-74
2023/06/12 01:43:32;;;;;;;0.32;0.10;;;17.90;99.90;;;;;;4990648;28;20149;-73
2023/06/12 01:45:58;;;;;;;0.00;0.00;;;17.90;99.90;;;;;;5005926;28;20419;-74
2023/06/12 01:48:24;;;;;;;0.00;0.00;;;17.90;99.90;;;;;;5003572;28;20784;-74
2023/06/12 01:50:49;;;;;;;0.20;0.17;;;17.80;99.90;;;;;;5005018;28;20058;-75
2023/06/12 01:53:15;;;;;;;1.85;0.70;;;17.80;99.90;;;;;;5005813;28;20411;-74
2023/06/12 01:55:42;;;;;;;0.65;0.30;;;17.80;99.90;;;;;;5005656;28;20038;-73
2023/06/12 01:58:08;;;;;;;0.10;0.00;;;17.70;99.90;;;;;;5005197;28;20165;-74
2023/06/12 02:00:35;;;;;;;0.85;0.38;;;17.70;99.90;;;;;;5004691;28;20049;-74
2023/06/12 02:03:01;;;;;;;0.90;0.30;;;17.70;99.90;;;;;;5005409;28;20048;-74
2023/06/12 02:05:27;;;;;;;0.75;0.05;;;17.60;99.90;;;;;;5009711;28;20354;-74
2023/06/12 02:07:53;;;;;;;0.65;0.17;;;17.60;99.90;;;;;;5007046;28;20445;-74
2023/06/12 02:10:19;;;;;;;1.35;0.35;;;17.60;99.90;;;;;;5006374;28;20513;-74
2023/06/12 02:12:44;;;;;;;3.92;0.28;;;17.50;99.90;;;;;;5006740;28;20052;-74
2023/06/12 02:15:13;;;;;;;0.10;0.10;;;17.60;99.90;;;;;;5008059;28;20446;-74
2023/06/12 02:17:39;;;;;;;0.32;0.15;;;17.50;99.90;;;;;;5006687;28;20041;-74
2023/06/12 02:20:06;;;;;;;0.30;0.20;;;17.50;99.90;;;;;;5006053;28;20045;-75
2023/06/12 02:22:31;;;;;;;2.00;0.47;;;17.40;99.90;;;;;;4990300;28;20200;-74
2023/06/12 02:24:57;;;;;;;0.38;0.25;;;17.40;99.90;;;;;;5007748;28;20085;-75
2023/06/12 02:27:23;;;;;;;3.50;1.05;;;17.40;99.90;;;;;;5006332;28;20049;-74
2023/06/12 02:29:49;;;;;;;0.10;0.10;;;17.30;99.90;;;;;;5007790;28;20498;-75
2023/06/12 02:32:15;;;;;;;0.00;0.00;;;17.20;99.90;;;;;;4989847;28;20490;-75
2023/06/12 02:34:40;;;;;;;0.10;0.10;;;17.20;99.90;;;;;;4986298;28;20084;-75
2023/06/12 02:37:10;;;;;;;0.00;0.00;;;17.20;99.90;;;;;;5003749;28;20589;-75
2023/06/12 02:39:36;;;;;;;0.00;0.00;;;17.10;99.90;;;;;;5004492;28;20057;-75
2023/06/12 02:42:02;;;;;;;0.00;0.00;;;17.10;99.90;;;;;;5003937;28;20042;-75
2023/06/12 02:44:27;;;;;;;0.28;0.10;;;17.00;99.90;;;;;;5005341;28;20038;-75
2023/06/12 02:46:56;;;;;;;0.55;0.28;;;16.90;99.90;;;;;;5006639;28;20128;-74
2023/06/12 02:49:23;;;;;;;0.08;0.08;;;16.90;99.90;;;;;;5001776;28;20525;-75
2023/06/12 02:51:50;;;;;;;0.47;0.17;;;16.90;99.90;;;;;;5006096;28;20690;-74
2023/06/12 02:54:17;;;;;;;0.00;0.00;;;16.80;99.90;;;;;;5004238;28;20046;-75
2023/06/12 02:56:45;;;;;;;0.10;0.10;;;16.80;99.90;;;;;;4989856;28;20505;-74
2023/06/12 02:59:14;;;;;;;0.80;0.43;;;16.70;99.90;;;;;;5006308;28;20045;-75
2023/06/12 03:01:43;;;;;;;0.85;0.30;;;16.70;99.90;;;;;;5005466;28;20088;-73
2023/06/12 03:04:11;;;;;;;0.03;0.00;;;16.70;99.90;;;;;;5003450;28;20046;-75
2023/06/12 03:06:36;;;;;;;0.10;0.10;;;16.60;99.90;;;;;;5005229;28;20066;-74
2023/06/12 03:09:03;;;;;;;0.00;0.00;;;16.60;99.90;;;;;;5007024;28;20034;-74
2023/06/12 03:11:30;;;;;;;0.00;0.00;;;16.60;99.90;;;;;;5005727;28;20050;-74
2023/06/12 03:13:55;;;;;;;0.00;0.00;;;16.50;99.90;;;;;;5004270;28;20050;-74
2023/06/12 03:16:22;;;;;;;0.20;0.13;;;16.50;99.90;;;;;;5004680;28;20096;-75
2023/06/12 03:18:48;;;;;;;0.17;0.17;;;16.50;99.90;;;;;;5003604;28;20049;-74
2023/06/12 03:21:14;;;;;;;0.00;0.00;;;16.40;99.90;;;;;;5003796;28;20037;-74
2023/06/12 03:23:40;;;;;;;0.10;0.10;;;16.40;99.90;;;;;;4982129;28;20406;-74
2023/06/12 03:26:06;;;;;;;0.10;0.10;;;16.30;99.90;;;;;;5005478;28;20052;-74
2023/06/12 03:28:34;;;;;;;0.93;0.28;;;16.40;99.90;;;;;;4994812;28;20084;-74
2023/06/12 03:31:00;;;;;;;0.00;0.00;;;16.30;99.90;;;;;;5001631;28;20047;-74
2023/06/12 03:33:26;;;;;;;0.05;0.05;;;16.30;99.90;;;;;;4988908;28;20040;-73
2023/06/12 03:35:52;;;;;;;9.60;0.63;;;16.30;99.90;;;;;;5003437;28;20061;-74
2023/06/12 03:38:18;;;;;;;0.20;0.20;;;16.30;99.90;;;;;;5004566;28;20283;-74
2023/06/12 03:40:44;;;;;;;0.00;0.00;;;16.20;99.90;;;;;;5005077;28;20451;-74
2023/06/12 03:43:10;;;;;;;0.05;0.05;;;16.20;99.90;;;;;;5002770;28;20521;-74
2023/06/12 03:45:35;;;;;;;1.55;0.82;;;16.20;99.90;;;;;;5006492;28;20044;-74
2023/06/12 03:48:01;;;;;;;0.43;0.40;;;16.20;99.90;;;;;;4988215;28;20468;-75
2023/06/12 03:50:27;;;;;;;0.70;0.25;;;16.10;99.90;;;;;;5007254;28;20045;-74
2023/06/12 03:52:52;;;;;;;0.20;0.20;;;16.10;99.90;;;;;;5012820;28;20053;-75
2023/06/12 03:55:21;;;;;;;0.65;0.43;;;16.10;99.90;;;;;;5013563;28;20099;-75
2023/06/12 03:57:46;;;;;;;0.00;0.00;;;16.10;99.90;;;;;;5007931;28;20052;-76
2023/06/12 04:00:13;;;;;;;0.10;0.10;;;16.10;99.90;;;;;;4994548;28;20045;-77
2023/06/12 04:02:38;;;;;;;0.00;0.00;;;16.10;99.90;;;;;;5012178;28;20088;-76
2023/06/12 04:05:04;;;;;;;0.00;0.00;;;16.10;99.90;;;;;;5013574;28;20065;-77
2023/06/12 04:07:30;;;;;;;1.02;0.30;;;16.10;99.90;;;;;;5013719;28;20468;-77
2023/06/12 04:09:56;;;;;;;0.00;0.00;;;16.10;99.90;;;;;;5009098;28;20076;-75
2023/06/12 04:12:21;;;;;;;0.10;0.10;;;16.10;99.90;;;;;;5014227;28;20053;-77
2023/06/12 04:14:47;;;;;;;0.28;0.28;;;16.10;99.90;;;;;;5011016;28;20045;-76
2023/06/12 04:17:12;;;;;;;0.10;0.10;;;16.10;99.90;;;;;;5011669;28;20524;-76
2023/06/12 04:19:39;;;;;;;0.10;0.10;;;16.10;99.90;;;;;;4996286;28;20056;-77
2023/06/12 04:22:05;;;;;;;0.20;0.17;;;16.20;99.90;;;;;;5015550;28;20436;-76
2023/06/12 04:24:33;;;;;;;0.10;0.10;;;16.20;99.90;;;;;;5014003;28;20045;-79
2023/06/12 04:27:03;;;;;;;0.10;0.00;;;16.10;99.90;;;;;;5007157;28;20041;-78
2023/06/12 04:29:31;;;;;;;0.03;0.03;;;16.10;99.90;;;;;;4997743;28;20084;-76
2023/06/12 04:31:58;;;;;;;0.32;0.15;;;16.20;99.90;;;;;;5009940;28;20056;-76
2023/06/12 04:34:24;;;;;;;0.10;0.10;;;16.20;99.90;;;;;;5009240;28;20041;-78
2023/06/12 04:36:52;;;;;;;1.08;0.75;;;16.20;99.90;;;;;;4996836;28;20037;-78
2023/06/12 04:39:19;;;;;;;0.00;0.00;;;16.30;99.90;;;;;;5005490;28;20044;-80
2023/06/12 04:41:47;;;;;;;0.22;0.15;;;16.30;99.90;;;;;;5007156;28;20073;-78
2023/06/12 04:44:14;;;;;;;0.10;0.10;;;16.30;99.90;;;;;;4995843;28;20106;-80
2023/06/12 04:46:40;;;;;;;0.00;0.00;;;16.40;99.90;;;;;;5009863;28;20061;-79
2023/06/12 04:49:05;;;;;;;0.95;0.75;;;16.50;99.90;;;;;;4990437;28;20038;-81
2023/06/12 04:51:31;;;;;;;0.22;0.22;;;16.60;99.90;;;;;;4996956;28;20122;-80
2023/06/12 04:54:01;;;;;;;0.28;0.15;;;16.70;99.90;;;;;;5009139;28;20057;-82
2023/06/12 04:56:27;;;;;;;0.47;0.43;;;16.80;99.90;;;;;;5011789;28;20652;-82
2023/06/12 04:58:53;;;;;;;0.32;0.20;;;16.90;99.90;;;;;;4996499;28;20045;-81
2023/06/12 05:01:21;;;;;;;0.13;0.10;;;17.30;99.90;;;;;;4998944;28;20401;-79
2023/06/12 05:03:49;;;;;;;0.20;0.10;;;17.70;99.90;;;;;;4996197;28;20405;-82
2023/06/12 05:06:16;;;;;;;0.17;0.10;;;18.10;99.90;;;;;;4992934;28;20407;-83
2023/06/12 05:08:42;;;;;;;0.28;0.17;;;18.30;99.90;;;;;;5011659;28;20065;-83
2023/06/12 05:11:07;;;;;;;0.10;0.10;;;18.20;99.90;;;;;;5013294;28;20045;-83
2023/06/12 05:13:33;;;;;;;0.60;0.32;;;18.10;99.90;;;;;;5012296;28;20037;-85
2023/06/12 05:15:59;;;;;;;0.10;0.00;;;18.10;99.90;;;;;;4995644;28;20042;-85
2023/06/12 05:18:25;;;;;;;0.38;0.30;;;18.00;99.90;;;;;;4995218;28;20052;-82
2023/06/12 05:20:51;;;;;;;2.17;0.57;;;17.80;99.90;;;;;;5012294;28;20045;-83
2023/06/12 05:23:16;;;;;;;4.10;0.57;;;17.80;99.90;;;;;;5013604;28;20489;-84
2023/06/12 05:25:42;;;;;;;0.60;0.25;;;17.70;99.90;;;;;;5007729;28;20048;-84
2023/06/12 05:28:11;;;;;;;0.00;0.00;;;17.80;99.90;;;;;;5012928;28;20480;-81
2023/06/12 05:30:37;;;;;;;0.03;0.00;;;17.80;99.90;;;;;;5009383;28;20041;-82
2023/06/12 05:33:02;;;;;;;1.25;0.17;;;17.90;99.90;;;;;;5010907;28;20049;-83
2023/06/12 05:35:30;;;;;;;0.05;0.05;;;17.90;99.90;;;;;;5010767;28;20124;-82
2023/06/12 05:37:56;;;;;;;0.08;0.03;;;17.90;99.90;;;;;;4992701;28;20080;-83
2023/06/12 05:40:21;;;;;;;1.88;0.70;;;17.90;99.90;;;;;;5014073;28;20072;-82
2023/06/12 05:42:47;;;;;;;0.20;0.20;;;18.00;99.90;;;;;;4991158;28;20042;-81
2023/06/12 05:45:13;;;;;;;0.05;0.05;;;18.20;99.90;;;;;;5012168;28;20124;-80
2023/06/12 05:47:39;;;;;;;0.40;0.17;;;18.30;99.90;;;;;;5008941;28;20091;-82
2023/06/12 05:50:05;;;;;;;0.10;0.10;;;18.30;99.90;;;;;;5003636;28;20042;-83
2023/06/12 05:52:31;;;;;;;0.30;0.20;;;18.40;99.90;;;;;;4990739;28;20099;-83
2023/06/12 05:54:57;;;;;;;0.00;0.00;;;18.40;99.90;;;;;;5007828;28;20046;-83
2023/06/12 05:57:23;;;;;;;0.10;0.10;;;18.50;99.90;;;;;;4987173;28;20446;-82
2023/06/12 05:59:49;;;;;;;0.10;0.10;;;18.60;99.90;;;;;;4985865;28;20050;-86
2023/06/12 06:02:14;;;;;;;0.00;0.00;;;18.70;99.90;;;;;;4989846;28;20042;-82
2023/06/12 06:04:40;;;;;;;0.25;0.20;;;18.70;99.90;;;;;;5001488;28;20039;-82
2023/06/12 06:07:11;;;;;;;0.00;0.00;;;18.80;99.90;;;;;;5022168;28;20065;-82
2023/06/12 06:09:37;;;;;;;0.40;0.30;;;18.90;99.90;;;;;;5005673;28;20038;-83
2023/06/12 06:12:03;;;;;;;0.95;0.30;;;19.00;99.90;;;;;;5005067;28;20359;-82
2023/06/12 06:14:29;;;;;;;0.55;0.55;;;19.20;99.90;;;;;;5004781;28;20085;-85
2023/06/12 06:16:55;;;;;;;0.40;0.32;;;19.40;99.90;;;;;;5006949;28;20125;-82
2023/06/12 06:19:21;;;;;;;0.10;0.10;;;19.50;99.90;;;;;;5005415;28;20120;-82
2023/06/12 06:21:46;;;;;;;0.25;0.22;;;19.60;99.90;;;;;;4990861;28;20043;-82
2023/06/12 06:24:12;;;;;;;0.80;0.30;;;19.70;99.90;;;;;;5003880;28;20506;-80
2023/06/12 06:26:38;;;;;;;0.00;0.00;;;19.80;99.90;;;;;;4992769;28;20187;-81
2023/06/12 06:29:04;;;;;;;1.45;0.45;;;20.00;99.90;;;;;;5005050;28;20140;-81
2023/06/12 06:31:30;;;;;;;0.00;0.00;;;20.10;99.90;;;;;;5007882;28;20100;-82
2023/06/12 06:33:55;;;;;;;1.02;0.30;;;20.30;99.90;;;;;;5006269;28;20425;-81
2023/06/12 06:36:23;;;;;;;0.00;0.00;;;20.50;99.90;;;;;;4991690;28;20120;-82
2023/06/12 06:38:48;;;;;;;0.00;0.00;;;20.60;99.90;;;;;;5008478;28;20049;-80
2023/06/12 06:41:14;;;;;;;0.10;0.10;;;20.70;99.90;;;;;;5008738;28;20395;-81
2023/06/12 06:43:40;;;;;;;0.00;0.00;;;20.70;99.90;;;;;;5004676;28;20095;-78
2023/06/12 06:46:06;;;;;;;0.90;0.40;;;20.90;99.90;;;;;;5006667;28;20046;-81
2023/06/12 06:48:31;;;;;;;0.00;0.00;;;21.00;99.90;;;;;;5005711;28;20195;-81
2023/06/12 06:50:58;;;;;;;0.03;0.03;;;21.10;99.90;;;;;;4991821;28;20452;-81
2023/06/12 06:53:23;;;;;;;0.10;0.10;;;21.30;99.90;;;;;;5001576;28;20585;-80
2023/06/12 06:55:49;;;;;;;0.22;0.22;;;21.40;99.90;;;;;;5004341;28;20088;-81
2023/06/12 06:58:15;;;;;;;0.10;0.10;;;21.60;99.90;;;;;;4989737;28;20128;-82
2023/06/12 07:00:41;;;;;;;0.20;0.20;;;21.70;99.90;;;;;;5006519;28;20144;-82
2023/06/12 07:03:08;;;;;;;0.10;0.10;;;21.80;99.90;;;;;;4991409;28;20176;-81
2023/06/12 07:05:33;;;;;;;0.10;0.00;;;21.80;99.90;;;;;;5003253;28;20065;-81
2023/06/12 07:07:59;;;;;;;0.00;0.00;;;21.90;99.90;;;;;;4991676;28;20037;-80
2023/06/12 07:10:25;;;;;;;1.08;0.25;;;22.10;99.90;;;;;;5008022;28;20053;-81
2023/06/12 07:12:56;;;;;;;0.10;0.10;;;22.20;99.90;;;;;;4993583;28;20092;-81
2023/06/12 07:15:24;;;;;;;1.27;0.15;;;22.40;99.90;;;;;;5005322;28;20042;-80
2023/06/12 07:17:50;;;;;;;0.00;0.00;;;22.50;99.90;;;;;;5007827;28;20038;-83
2023/06/12 07:20:15;;;;;;;4.47;0.75;;;22.50;99.50;;;;;;5004333;28;20038;-84
2023/06/12 07:22:41;;;;;;;0.32;0.10;;;22.60;99.70;;;;;;5008619;28;20040;-81
2023/06/12 07:25:08;;;;;;;0.15;0.05;;;22.70;99.90;;;;;;5009162;28;20030;-84
2023/06/12 07:27:34;;;;;;;0.00;0.00;;;22.80;98.20;;;;;;5009665;28;20042;-81
2023/06/12 07:30:00;;;;;;;2.30;0.63;;;22.80;97.70;;;;;;4996394;28;20269;-82
2023/06/12 07:32:25;;;;;;;0.65;0.30;;;22.90;98.90;;;;;;5012038;28;20037;-81
2023/06/12 07:34:51;;;;;;;0.00;0.00;;;23.10;98.20;;;;;;5011296;28;20037;-81
2023/06/12 07:37:20;;;;;;;0.43;0.20;;;23.20;98.70;;;;;;5010278;28;20034;-82
2023/06/12 07:39:47;;;;;;;0.15;0.05;;;23.20;95.90;;;;;;5009998;28;20503;-82
2023/06/12 07:42:13;;;;;;;0.30;0.20;;;23.30;96.50;;;;;;4992505;28;20102;-82
2023/06/12 07:44:40;;;;;;;0.63;0.15;;;23.50;98.00;;;;;;4996553;28;20038;-83
2023/06/12 07:47:06;;;;;;;0.70;0.55;;;23.60;95.90;;;;;;5010171;28;20046;-81
2023/06/12 07:49:32;;;;;;;0.70;0.40;;;23.80;95.70;;;;;;5010721;28;20060;-83
2023/06/12 07:51:59;;;;;;;1.27;0.40;;;23.90;95.80;;;;;;4989797;28;20045;-84
2023/06/12 07:54:25;;;;;;;0.17;0.10;;;23.90;93.80;;;;;;5005524;28;20037;-83
2023/06/12 07:56:51;;;;;;;0.57;0.10;;;23.90;92.70;;;;;;5007192;28;20050;-80
2023/06/12 07:59:17;;;;;;;0.32;0.10;;;24.00;93.60;;;;;;5010762;28;20053;-80
2023/06/12 08:01:43;;;;;;;0.00;0.00;;;24.10;93.20;;;;;;5008816;28;20045;-80
2023/06/12 08:04:09;;;;;;;2.13;0.90;;;24.30;95.10;;;;;;5008217;28;20046;-80
2023/06/12 08:06:37;;;;;;;1.95;0.30;;;24.40;91.30;;;;;;5007747;28;20148;-80
2023/06/12 08:09:03;;;;;;;0.17;0.17;;;24.40;92.30;;;;;;4989154;28;20043;-81
2023/06/12 08:11:29;;;;;;;0.10;0.10;;;24.60;93.50;;;;;;5008516;28;20059;-81
2023/06/12 08:13:55;;;;;;;1.55;0.20;;;24.70;91.90;;;;;;4992951;28;20489;-79
2023/06/12 08:16:23;;;;;;;0.65;0.17;;;24.90;91.60;;;;;;5006519;28;20064;-80
2023/06/12 08:18:49;;;;;;;0.05;0.05;;;25.00;92.00;;;;;;5009297;28;20057;-82
2023/06/12 08:21:15;;;;;;;0.50;0.35;;;25.10;87.20;;;;;;4994252;28;20046;-80
2023/06/12 08:23:40;;;;;;;0.63;0.13;;;25.10;86.40;;;;;;5009229;28;20152;-81
2023/06/12 08:26:08;;;;;;;0.25;0.10;;;25.20;87.80;;;;;;4991150;28;20049;-78
2023/06/12 08:28:35;;;;;;;0.30;0.20;;;25.30;84.50;;;;;;5009613;28;20049;-78
2023/06/12 08:31:01;;;;;;;0.20;0.10;;;25.50;86.60;;;;;;5008885;28;20050;-80
2023/06/12 08:33:28;;;;;;;0.52;0.20;;;25.60;85.30;;;;;;5008878;28;20038;-82
2023/06/12 08:35:54;;;;;;;0.00;0.00;;;25.70;83.80;;;;;;5005349;28;20065;-80
2023/06/12 08:38:20;;;;;;;0.55;0.30;;;25.80;81.60;;;;;;4992321;28;20044;-87
2023/06/12 08:40:46;;;;;;;0.75;0.35;;;25.90;79.20;;;;;;5006027;28;20046;-76
2023/06/12 08:43:12;;;;;;;0.20;0.13;;;26.00;84.20;;;;;;5010769;28;20489;-82
2023/06/12 08:45:46;;;;;;;0.20;0.17;;;26.00;80.40;;;;;;5009457;28;20057;-79
2023/06/12 08:48:15;;;;;;;0.63;0.13;;;26.10;82.90;;;;;;5009959;28;20124;-79
2023/06/12 08:50:43;;;;;;;0.10;0.05;;;26.30;80.20;;;;;;5011885;28;20078;-80
2023/06/12 08:53:09;;;;;;;0.85;0.55;;;26.50;81.90;;;;;;5014599;28;20046;-80
2023/06/12 08:55:39;;;;;;;0.68;0.20;;;26.70;82.60;;;;;;5012479;28;20033;-78
2023/06/12 08:58:07;;;;;;;1.10;0.40;;;26.80;79.00;;;;;;5012151;28;20037;-79
2023/06/12 09:00:33;;;;;;;1.83;0.40;;;26.90;80.40;;;;;;5007118;28;20048;-77
2023/06/12 09:03:00;;;;;;;0.08;0.08;;;26.90;81.70;;;;;;4997095;28;20084;-79
2023/06/12 09:05:33;;;;;;;0.17;0.10;;;26.90;79.20;;;;;;5010082;28;20041;-78
2023/06/12 09:08:05;;;;;;;0.30;0.20;;;27.00;80.70;;;;;;5010744;28;20046;-77
2023/06/12 09:10:32;;;;;;;0.17;0.10;;;27.10;78.90;;;;;;4985357;28;20041;-79
2023/06/12 09:12:58;;;;;;;0.35;0.22;;;27.30;70.30;;;;;;5012212;28;20120;-76
2023/06/12 09:15:25;;;;;;;0.38;0.22;;;27.40;73.10;;;;;;5010330;28;20061;-80
2023/06/12 09:17:55;;;;;;;4.90;0.22;;;27.50;69.80;;;;;;5012192;28;20103;-77
2023/06/12 09:20:33;;;;;;;0.40;0.20;;;27.70;73.40;;;;;;5007677;28;20048;-78
2023/06/12 09:23:04;;;;;;;1.40;0.40;;;28.00;70.20;;;;;;5011707;28;20045;-77
2023/06/12 09:25:54;;;;;;;0.80;0.30;;;28.20;69.10;;;;;;5009951;28;20076;-78
2023/06/12 09:28:24;;;;;;;1.35;0.13;;;28.30;68.80;;;;;;5010931;28;20062;-77
2023/06/12 09:30:50;;;;;;;0.35;0.20;;;28.50;67.60;;;;;;4995656;28;20121;-77
2023/06/12 09:33:16;;;;;;;0.35;0.17;;;28.50;68.40;;;;;;5013082;28;20136;-77
2023/06/12 09:35:52;;;;;;;0.98;0.20;;;28.60;65.20;;;;;;5006907;28;20046;-77
2023/06/12 09:38:18;;;;;;;0.20;0.20;;;28.60;67.50;;;;;;5013940;28;20344;-80
2023/06/12 09:40:43;;;;;;;0.47;0.30;;;28.80;69.50;;;;;;4995003;28;20510;-77
2023/06/12 09:43:16;;;;;;;0.05;0.00;;;28.70;65.10;;;;;;5012603;28;20038;-76
2023/06/12 09:45:48;;;;;;;1.23;0.35;;;28.70;65.30;;;;;;5009520;28;20045;-79
2023/06/12 09:48:16;;;;;;;0.30;0.15;;;28.70;65.80;;;;;;5005144;28;20041;-79
2023/06/12 09:50:47;;;;;;;0.43;0.32;;;29.00;66.60;;;;;;5005961;28;20053;-78
2023/06/12 09:53:32;;;;;;;0.35;0.25;;;29.10;65.50;;;;;;5011324;28;20056;-79
2023/06/12 09:56:07;;;;;;;0.52;0.13;;;29.30;65.20;;;;;;5006932;28;20483;-80
2023/06/12 09:58:47;;;;;;;0.95;0.30;;;29.50;63.80;;;;;;5013211;28;20521;-79
2023/06/12 10:01:21;;;;;;;0.32;0.28;;;29.50;56.80;;;;;;5010295;28;20077;-78
2023/06/12 10:03:56;;;;;;;;;;;29.60;60.70;;;;;;5010348;28;20057;-78
2023/06/12 10:06:32;;;;;;;3.03;0.95;;;29.80;57.00;;;;;;4995296;28;19925;-79
2023/06/12 10:09:06;;;;;;;0.55;0.22;;;30.10;57.40;;;;;;5011161;28;20529;-77
2023/06/12 10:11:42;;;;;;;2.08;0.40;;;30.40;60.50;;;;;;5008271;28;20099;-78
2023/06/12 10:14:14;;;;;;;0.70;0.30;;;30.50;54.10;;;;;;5011873;28;20048;-77
2023/06/12 10:16:46;;;;;;;0.55;0.20;;;30.70;56.30;;;;;;4992070;28;20045;-78
2023/06/12 10:19:22;;;;;;;0.40;0.40;;;30.70;55.00;;;;;;4989146;28;20052;-80
2023/06/12 10:21:55;;;;;;;0.98;0.25;;;30.70;52.70;;;;;;5010901;28;20041;-76
2023/06/12 10:24:22;;;;;;;0.10;0.00;;;30.60;52.60;;;;;;5008793;28;20293;-76
2023/06/12 10:26:51;;;;;;;0.45;0.17;;;30.80;54.60;;;;;;5002057;28;20133;-77
2023/06/12 10:29:27;;;;;;;0.10;0.00;;;31.00;51.20;;;;;;4991660;28;20045;-76
2023/06/12 10:31:53;;;;;;;2.33;0.35;;;31.20;50.80;;;;;;5008390;28;20053;-76
2023/06/12 10:34:20;;;;;;;0.88;0.40;;;31.20;50.10;;;;;;5003322;28;20049;-77
2023/06/12 10:36:46;;;;;;;0.47;0.22;;;31.30;51.10;;;;;;4996342;28;20452;-76
2023/06/12 10:39:17;;;;;;;3.20;0.47;;;31.30;50.80;;;;;;4998937;28;20393;-74
2023/06/12 10:41:57;;;;;;;0.30;0.20;;;31.40;46.50;;;;;;4993426;28;20038;-75
2023/06/12 10:44:45;;;;;;;1.42;0.22;;;31.30;46.10;;;;;;5010810;28;20042;-75
2023/06/12 10:47:23;;;;;;;1.30;0.57;;;31.20;46.00;;;;;;5009096;28;20389;-73
2023/06/12 10:49:58;;;;;;;1.10;0.65;;;31.20;43.90;;;;;;5009669;28;20037;-73
2023/06/12 10:52:25;;;;;;;0.22;0.10;;;31.30;45.30;;;;;;5007618;28;20057;-75
2023/06/12 10:55:13;;;;;;;0.22;0.20;;;31.50;46.70;;;;;;5010744;28;20080;-74
2023/06/12 10:57:39;;;;;;;0.88;0.60;;;31.70;48.30;;;;;;4996328;28;20040;-79
2023/06/12 11:00:07;;;;;;;0.68;0.30;;;31.60;43.30;;;;;;5011664;28;20124;-78
2023/06/12 11:02:34;;;;;;;0.57;0.25;;;31.60;42.70;;;;;;4995388;28;20036;-78
2023/06/12 11:05:03;;;;;;;0.15;0.10;;;31.70;46.50;;;;;;5008959;28;20046;-78
2023/06/12 11:07:34;;;;;;;0.68;0.25;;;31.90;45.10;;;;;;5009168;28;20045;-78
2023/06/12 11:10:09;;;;;;;0.30;0.20;;;32.10;43.50;;;;;;5012844;28;20072;-78
2023/06/12 11:12:36;;;;;;;0.30;0.28;;;32.10;43.00;;;;;;5008094;28;20556;-78
2023/06/12 11:15:01;;;;;;;0.55;0.52;;;32.10;43.10;;;;;;5000263;28;20509;-77
2023/06/12 11:17:30;;;;;;;0.45;0.15;;;32.00;42.30;;;;;;4992954;28;20099;-79
2023/06/12 11:20:00;;;;;;;0.20;0.20;;;32.10;41.90;;;;;;5006938;28;20041;-78
2023/06/12 11:22:26;;;;;;;0.22;0.20;;;32.20;42.30;;;;;;5007333;28;20037;-77
2023/06/12 11:25:05;;;;;;;0.10;0.10;;;32.50;40.00;;;;;;5007757;28;20367;-76
2023/06/12 11:27:31;;;;;;;1.00;0.45;;;32.60;42.20;;;;;;5009298;28;20519;-79
2023/06/12 11:30:10;;;;;;;2.22;1.45;;;32.70;38.60;;;;;;5008648;28;20049;-74
2023/06/12 11:32:36;;;;;;;0.45;0.28;;;32.80;41.40;;;;;;5010811;28;20041;-74
2023/06/12 11:35:03;;;;;;;0.52;0.20;;;32.90;39.70;;;;;;4995202;28;20029;-74
2023/06/12 11:37:29;;;;;;;0.65;0.50;;;32.70;39.20;;;;;;5008958;28;20433;-83
2023/06/12 11:40:20;;;;;;;0.55;0.25;;;32.80;40.70;;;;;;5011675;28;20045;-79
2023/06/12 11:42:48;;;;;;;1.08;0.30;;;32.80;38.30;;;;;;5008955;28;20041;-76
2023/06/12 11:45:15;;;;;;;0.63;0.28;;;33.00;38.40;;;;;;4995911;28;20045;-77
2023/06/12 11:47:45;;;;;;;0.25;0.20;;;33.10;38.10;;;;;;5008725;28;20335;-78
2023/06/12 11:50:17;;;;;;;0.52;0.40;;;33.00;35.70;;;;;;5004957;28;20042;-77
2023/06/12 11:52:48;;;;;;;1.00;0.40;;;32.80;37.70;;;;;;5009872;28;20081;-77
2023/06/12 11:55:17;;;;;;;0.10;0.10;;;33.00;39.30;;;;;;5011675;28;20525;-79
2023/06/12 11:57:50;;;;;;;0.20;0.20;;;33.00;36.40;;;;;;5005113;28;20049;-78
2023/06/12 12:00:18;;;;;;;1.40;0.35;;;32.70;36.40;;;;;;5009872;28;20132;-69
2023/06/12 12:02:51;;;;;;;0.65;0.40;;;32.40;37.00;;;;;;5028421;28;20478;-69
2023/06/12 12:05:24;;;;;;;0.30;0.20;;;32.00;37.40;;;;;;5027005;28;20479;-66
2023/06/12 12:07:59;;;;;;;0.75;0.43;;;31.80;38.90;;;;;;5026911;28;20047;-66
2023/06/12 12:10:27;;;;;;;0.45;0.25;;;31.60;37.70;;;;;;5028910;28;20231;-66
2023/06/12 12:13:03;;;;;;;0.47;0.45;;;31.40;38.60;;;;;;5010297;28;20121;-67
2023/06/12 12:15:40;;;;;;;0.70;0.60;;;31.30;38.50;;;;;;5028893;28;20045;-66
2023/06/12 12:18:17;;;;;;;1.08;0.68;;;31.50;39.60;;;;;;5024840;28;20095;-69
2023/06/12 12:20:47;;;;;;;0.95;0.32;;;31.60;37.90;;;;;;5008441;28;20064;-66
2023/06/12 12:23:13;;;;;;;0.90;0.40;;;31.50;39.10;;;;;;5027301;28;20128;-67
2023/06/12 12:25:44;;;;;;;0.25;0.20;;;31.50;40.00;;;;;;5009268;28;20103;-67
2023/06/12 12:28:10;;;;;;;0.30;0.30;;;31.60;39.10;;;;;;5026958;28;20103;-68
2023/06/12 12:30:36;;;;;;;2.60;0.57;;;31.70;38.00;;;;;;5029058;28;20510;-67
2023/06/12 12:33:02;;;;;;;0.93;0.25;;;31.60;36.80;;;;;;5029696;28;20317;-68
2023/06/12 12:35:28;;;;;;;0.80;0.40;;;31.60;38.20;;;;;;5030774;28;20124;-67
2023/06/12 12:37:55;;;;;;;0.15;0.10;;;31.70;37.50;;;;;;5031002;28;20116;-79
2023/06/12 12:40:23;;;;;;;0.45;0.30;;;31.90;38.70;;;;;;5009703;28;20084;-79
2023/06/12 12:42:49;;;;;;;1.83;0.80;;;32.00;37.10;;;;;;5014253;28;20271;-73
2023/06/12 12:45:17;;;;;;;0.85;0.40;;;31.50;36.80;;;;;;5012204;28;20037;-73
2023/06/12 12:47:51;;;;;;;1.45;0.60;;;31.30;37.60;;;;;;5011894;28;20049;-73
2023/06/12 12:50:18;;;;;;;0.20;0.20;;;31.00;36.40;;;;;;5010666;28;20052;-74
2023/06/12 12:52:45;;;;;;;1.02;0.40;;;30.80;38.20;;;;;;5009800;28;20065;-72